sensor_id;sensor_type;location;lat;lon;timestamp;pressure;altitude;pressure_sealevel;temperature
11926;BMP180;6022;48.768;18.608;2022-09-29T00:01:11;96931.25;;;12.68
11926;BMP180;6022;48.768;18.608;2022-09-29T00:03:39;96932.16;;;12.67
11926;BMP180;6022;48.768;18.608;2022-09-29T00:06:16;96940.75;;;12.66
11926;BMP180;6022;48.768;18.608;2022-09-29T00:08:45;96948.41;;;12.66
11926;BMP180;6022;48.768;18.608;2022-09-29T00:11:16;96942.66;;;12.64
11926;BMP180;6022;48.768;18.608;2022-09-29T00:13:45;96956.63;;;12.60
11926;BMP180;6022;48.768;18.608;2022-09-29T00:16:14;96937.13;;;12.51
11926;BMP180;6022;48.768;18.608;2022-09-29T00:18:41;96935.50;;;12.50
11926;BMP180;6022;48.768;18.608;2022-09-29T00:21:15;96921.84;;;12.51
11926;BMP180;6022;48.768;18.608;2022-09-29T00:23:43;96922.97;;;12.48
11926;BMP180;6022;48.768;18.608;2022-09-29T00:28:45;96930.06;;;12.45
11926;BMP180;6022;48.768;18.608;2022-09-29T00:31:13;96936.41;;;12.41
11926;BMP180;6022;48.768;18.608;2022-09-29T00:33:41;96944.94;;;12.40
11926;BMP180;6022;48.768;18.608;2022-09-29T00:36:12;96944.69;;;12.43
11926;BMP180;6022;48.768;18.608;2022-09-29T00:38:42;96945.34;;;12.45
11926;BMP180;6022;48.768;18.608;2022-09-29T00:41:23;96943.31;;;12.48
11926;BMP180;6022;48.768;18.608;2022-09-29T00:46:58;96939.28;;;12.46
11926;BMP180;6022;48.768;18.608;2022-09-29T00:52:25;96928.84;;;12.49
11926;BMP180;6022;48.768;18.608;2022-09-29T00:54:58;96927.00;;;12.42
11926;BMP180;6022;48.768;18.608;2022-09-29T01:00:19;96926.78;;;12.35
11926;BMP180;6022;48.768;18.608;2022-09-29T01:02:56;96932.94;;;12.33
11926;BMP180;6022;48.768;18.608;2022-09-29T01:05:32;96932.16;;;12.32
11926;BMP180;6022;48.768;18.608;2022-09-29T01:08:10;96921.53;;;12.19
11926;BMP180;6022;48.768;18.608;2022-09-29T01:10:42;96924.06;;;12.19
11926;BMP180;6022;48.768;18.608;2022-09-29T01:13:10;96918.59;;;12.14
11926;BMP180;6022;48.768;18.608;2022-09-29T01:15:37;96924.91;;;12.10
11926;BMP180;6022;48.768;18.608;2022-09-29T01:18:05;96921.50;;;12.02
11926;BMP180;6022;48.768;18.608;2022-09-29T01:20:42;96931.59;;;11.94
11926;BMP180;6022;48.768;18.608;2022-09-29T01:23:39;96924.66;;;11.87
11926;BMP180;6022;48.768;18.608;2022-09-29T01:43:31;96922.56;;;11.73
11926;BMP180;6022;48.768;18.608;2022-09-29T01:46:07;96917.63;;;11.71
11926;BMP180;6022;48.768;18.608;2022-09-29T01:48:44;96918.13;;;11.75
11926;BMP180;6022;48.768;18.608;2022-09-29T01:51:18;96924.97;;;11.74
11926;BMP180;6022;48.768;18.608;2022-09-29T01:53:51;96928.28;;;11.75
11926;BMP180;6022;48.768;18.608;2022-09-29T01:56:37;96932.44;;;11.76
11926;BMP180;6022;48.768;18.608;2022-09-29T01:59:26;96940.72;;;11.78
11926;BMP180;6022;48.768;18.608;2022-09-29T02:02:03;96932.44;;;11.76
11926;BMP180;6022;48.768;18.608;2022-09-29T02:04:43;96931.38;;;11.78
11926;BMP180;6022;48.768;18.608;2022-09-29T02:07:21;96931.38;;;11.78
11926;BMP180;6022;48.768;18.608;2022-09-29T02:10:02;96933.63;;;11.81
11926;BMP180;6022;48.768;18.608;2022-09-29T02:12:33;96936.97;;;11.82
11926;BMP180;6022;48.768;18.608;2022-09-29T02:15:05;96937.09;;;11.80
11926;BMP180;6022;48.768;18.608;2022-09-29T02:17:38;96949.00;;;11.80
11926;BMP180;6022;48.768;18.608;2022-09-29T02:20:09;96942.31;;;11.79
11926;BMP180;6022;48.768;18.608;2022-09-29T02:22:37;96946.06;;;11.75
11926;BMP180;6022;48.768;18.608;2022-09-29T02:25:10;96949.56;;;11.74
11926;BMP180;6022;48.768;18.608;2022-09-29T02:27:38;96954.66;;;11.74
11926;BMP180;6022;48.768;18.608;2022-09-29T02:30:05;96954.00;;;11.72
11926;BMP180;6022;48.768;18.608;2022-09-29T02:32:35;96946.94;;;11.66
11926;BMP180;6022;48.768;18.608;2022-09-29T02:35:05;96949.47;;;11.66
11926;BMP180;6022;48.768;18.608;2022-09-29T02:37:44;96953.06;;;11.64
11926;BMP180;6022;48.768;18.608;2022-09-29T02:45:46;96973.28;;;11.56
11926;BMP180;6022;48.768;18.608;2022-09-29T02:51:24;97014.34;;;11.51
11926;BMP180;6022;48.768;18.608;2022-09-29T02:57:19;97023.16;;;11.47
11926;BMP180;6022;48.768;18.608;2022-09-29T03:00:08;97004.69;;;11.45
11926;BMP180;6022;48.768;18.608;2022-09-29T03:02:39;96994.94;;;11.50
11926;BMP180;6022;48.768;18.608;2022-09-29T03:05:11;96993.34;;;11.49
11926;BMP180;6022;48.768;18.608;2022-09-29T03:07:40;96988.94;;;11.32
11926;BMP180;6022;48.768;18.608;2022-09-29T03:10:08;96990.28;;;11.18
11926;BMP180;6022;48.768;18.608;2022-09-29T03:12:36;96990.84;;;11.12
11926;BMP180;6022;48.768;18.608;2022-09-29T03:15:04;96997.91;;;11.08
11926;BMP180;6022;48.768;18.608;2022-09-29T03:17:33;96997.75;;;11.10
11926;BMP180;6022;48.768;18.608;2022-09-29T03:20:01;96998.56;;;11.10
11926;BMP180;6022;48.768;18.608;2022-09-29T03:22:28;96997.75;;;11.10
11926;BMP180;6022;48.768;18.608;2022-09-29T03:24:56;97001.00;;;11.12
11926;BMP180;6022;48.768;18.608;2022-09-29T03:27:23;97004.44;;;11.11
11926;BMP180;6022;48.768;18.608;2022-09-29T03:29:50;96996.84;;;11.11
11926;BMP180;6022;48.768;18.608;2022-09-29T03:32:18;97006.97;;;11.11
11926;BMP180;6022;48.768;18.608;2022-09-29T03:34:45;96995.22;;;11.10
11926;BMP180;6022;48.768;18.608;2022-09-29T03:37:13;97008.97;;;11.07
11926;BMP180;6022;48.768;18.608;2022-09-29T03:39:40;97005.53;;;11.08
11926;BMP180;6022;48.768;18.608;2022-09-29T03:42:07;97006.56;;;11.06
11926;BMP180;6022;48.768;18.608;2022-09-29T03:44:35;97006.56;;;11.06
11926;BMP180;6022;48.768;18.608;2022-09-29T03:47:03;97003.66;;;11.10
11926;BMP180;6022;48.768;18.608;2022-09-29T03:49:31;97003.91;;;11.17
11926;BMP180;6022;48.768;18.608;2022-09-29T03:51:58;96996.69;;;11.22
11926;BMP180;6022;48.768;18.608;2022-09-29T03:54:25;96989.09;;;11.22
11926;BMP180;6022;48.768;18.608;2022-09-29T03:56:53;96986.81;;;11.19
11926;BMP180;6022;48.768;18.608;2022-09-29T03:59:21;96981.84;;;11.17
11926;BMP180;6022;48.768;18.608;2022-09-29T04:01:49;96976.09;;;11.25
11926;BMP180;6022;48.768;18.608;2022-09-29T04:04:16;96972.00;;;11.14
11926;BMP180;6022;48.768;18.608;2022-09-29T04:06:44;96975.19;;;11.07
11926;BMP180;6022;48.768;18.608;2022-09-29T04:09:11;96972.00;;;11.05
11926;BMP180;6022;48.768;18.608;2022-09-29T04:11:38;96978.28;;;11.01
11926;BMP180;6022;48.768;18.608;2022-09-29T04:14:06;96982.41;;;11.02
11926;BMP180;6022;48.768;18.608;2022-09-29T04:16:33;96983.06;;;11.04
11926;BMP180;6022;48.768;18.608;2022-09-29T04:19:00;96978.81;;;11.04
11926;BMP180;6022;48.768;18.608;2022-09-29T04:21:28;96977.06;;;11.05
11926;BMP180;6022;48.768;18.608;2022-09-29T04:23:55;96983.06;;;11.04
11926;BMP180;6022;48.768;18.608;2022-09-29T04:26:22;96990.00;;;11.02
11926;BMP180;6022;48.768;18.608;2022-09-29T04:28:50;96984.16;;;11.01
11926;BMP180;6022;48.768;18.608;2022-09-29T04:31:17;96990.84;;;11.02
11926;BMP180;6022;48.768;18.608;2022-09-29T04:33:45;96985.75;;;11.02
11926;BMP180;6022;48.768;18.608;2022-09-29T04:36:12;96981.75;;;11.00
11926;BMP180;6022;48.768;18.608;2022-09-29T04:38:40;96978.00;;;11.04
11926;BMP180;6022;48.768;18.608;2022-09-29T04:41:08;96979.88;;;11.02
11926;BMP180;6022;48.768;18.608;2022-09-29T04:43:35;96978.53;;;10.98
11926;BMP180;6022;48.768;18.608;2022-09-29T04:46:07;96988.69;;;10.98
11926;BMP180;6022;48.768;18.608;2022-09-29T04:48:34;96991.22;;;10.98
11926;BMP180;6022;48.768;18.608;2022-09-29T04:51:03;96990.97;;;11.01
11926;BMP180;6022;48.768;18.608;2022-09-29T04:53:31;96997.75;;;11.00
11926;BMP180;6022;48.768;18.608;2022-09-29T04:56:03;96998.56;;;11.01
11926;BMP180;6022;48.768;18.608;2022-09-29T04:58:30;96998.72;;;10.99
11926;BMP180;6022;48.768;18.608;2022-09-29T05:01:08;97006.44;;;10.98
11926;BMP180;6022;48.768;18.608;2022-09-29T05:03:36;97003.91;;;10.98
11926;BMP180;6022;48.768;18.608;2022-09-29T05:06:04;96995.38;;;10.99
11926;BMP180;6022;48.768;18.608;2022-09-29T05:08:32;96999.50;;;11.00
11926;BMP180;6022;48.768;18.608;2022-09-29T05:11:06;96995.91;;;11.02
11926;BMP180;6022;48.768;18.608;2022-09-29T05:13:34;97001.00;;;11.02
11926;BMP180;6022;48.768;18.608;2022-09-29T05:16:04;96993.50;;;11.01
11926;BMP180;6022;48.768;18.608;2022-09-29T05:18:32;96989.22;;;11.01
11926;BMP180;6022;48.768;18.608;2022-09-29T05:21:06;96985.91;;;11.01
11926;BMP180;6022;48.768;18.608;2022-09-29T05:23:53;96992.56;;;11.02
11926;BMP180;6022;48.768;18.608;2022-09-29T05:26:20;96987.47;;;11.02
11926;BMP180;6022;48.768;18.608;2022-09-29T05:28:48;96986.69;;;11.01
11926;BMP180;6022;48.768;18.608;2022-09-29T05:31:16;96988.16;;;11.04
11926;BMP180;6022;48.768;18.608;2022-09-29T05:33:46;96997.38;;;11.05
11926;BMP180;6022;48.768;18.608;2022-09-29T05:36:14;97004.69;;;11.08
11926;BMP180;6022;48.768;18.608;2022-09-29T05:38:41;96997.25;;;11.06
11926;BMP180;6022;48.768;18.608;2022-09-29T05:41:10;97003.91;;;11.07
11926;BMP180;6022;48.768;18.608;2022-09-29T05:43:39;97003.38;;;11.04
11926;BMP180;6022;48.768;18.608;2022-09-29T05:46:09;97007.53;;;11.05
11926;BMP180;6022;48.768;18.608;2022-09-29T05:48:36;97009.25;;;11.04
11926;BMP180;6022;48.768;18.608;2022-09-29T05:51:11;97013.25;;;11.07
11926;BMP180;6022;48.768;18.608;2022-09-29T05:53:40;97011.66;;;11.06
11926;BMP180;6022;48.768;18.608;2022-09-29T05:56:12;97016.59;;;11.07
11926;BMP180;6022;48.768;18.608;2022-09-29T05:58:41;97025.00;;;11.08
11926;BMP180;6022;48.768;18.608;2022-09-29T06:01:12;97029.81;;;11.11
11926;BMP180;6022;48.768;18.608;2022-09-29T06:03:40;97027.03;;;11.14
11926;BMP180;6022;48.768;18.608;2022-09-29T06:06:11;97026.06;;;11.15
11926;BMP180;6022;48.768;18.608;2022-09-29T06:08:40;97031.81;;;11.17
11926;BMP180;6022;48.768;18.608;2022-09-29T06:11:13;97040.09;;;11.19
11926;BMP180;6022;48.768;18.608;2022-09-29T06:13:45;97041.72;;;11.20
11926;BMP180;6022;48.768;18.608;2022-09-29T06:16:14;97041.31;;;11.24
11926;BMP180;6022;48.768;18.608;2022-09-29T06:18:42;97049.59;;;11.26
11926;BMP180;6022;48.768;18.608;2022-09-29T06:21:13;97052.66;;;11.30
11926;BMP180;6022;48.768;18.608;2022-09-29T06:23:41;97054.94;;;11.32
11926;BMP180;6022;48.768;18.608;2022-09-29T06:26:12;97052.25;;;11.34
11926;BMP180;6022;48.768;18.608;2022-09-29T06:28:40;97050.13;;;11.30
11926;BMP180;6022;48.768;18.608;2022-09-29T06:31:15;97052.00;;;11.37
11926;BMP180;6022;48.768;18.608;2022-09-29T06:33:44;97049.84;;;11.42
11926;BMP180;6022;48.768;18.608;2022-09-29T06:39:18;97054.69;;;11.45
11926;BMP180;6022;48.768;18.608;2022-09-29T06:41:46;97041.84;;;11.46
11926;BMP180;6022;48.768;18.608;2022-09-29T06:44:25;97051.22;;;11.46
11926;BMP180;6022;48.768;18.608;2022-09-29T06:46:53;97058.72;;;11.47
11926;BMP180;6022;48.768;18.608;2022-09-29T06:49:22;97054.78;;;11.43
11926;BMP180;6022;48.768;18.608;2022-09-29T06:51:50;97057.09;;;11.46
11926;BMP180;6022;48.768;18.608;2022-09-29T06:54:22;97058.72;;;11.47
11926;BMP180;6022;48.768;18.608;2022-09-29T06:56:53;97055.47;;;11.45
11926;BMP180;6022;48.768;18.608;2022-09-29T06:59:21;97054.13;;;11.51
11926;BMP180;6022;48.768;18.608;2022-09-29T07:01:49;97056.94;;;11.57
11926;BMP180;6022;48.768;18.608;2022-09-29T07:04:19;97057.06;;;11.65
11926;BMP180;6022;48.768;18.608;2022-09-29T07:06:47;97060.38;;;11.75
11926;BMP180;6022;48.768;18.608;2022-09-29T07:09:16;97060.38;;;11.84
11926;BMP180;6022;48.768;18.608;2022-09-29T07:11:50;97054.06;;;11.88
11926;BMP180;6022;48.768;18.608;2022-09-29T07:14:20;97057.53;;;11.97
11926;BMP180;6022;48.768;18.608;2022-09-29T07:16:49;97056.41;;;12.08
11926;BMP180;6022;48.768;18.608;2022-09-29T07:19:17;97061.34;;;12.19
11926;BMP180;6022;48.768;18.608;2022-09-29T07:21:46;97054.75;;;12.26
11926;BMP180;6022;48.768;18.608;2022-09-29T07:24:15;97049.38;;;12.29
11926;BMP180;6022;48.768;18.608;2022-09-29T07:26:43;97052.09;;;12.28
11926;BMP180;6022;48.768;18.608;2022-09-29T07:29:10;97053.19;;;12.43
11926;BMP180;6022;48.768;18.608;2022-09-29T07:31:42;97055.50;;;12.63
11926;BMP180;6022;48.768;18.608;2022-09-29T07:34:19;97063.91;;;12.73
11926;BMP180;6022;48.768;18.608;2022-09-29T07:36:47;97061.03;;;12.85
11926;BMP180;6022;48.768;18.608;2022-09-29T07:39:14;97063.00;;;12.91
11926;BMP180;6022;48.768;18.608;2022-09-29T07:41:42;97062.41;;;12.80
11926;BMP180;6022;48.768;18.608;2022-09-29T07:44:09;97054.53;;;12.73
11926;BMP180;6022;48.768;18.608;2022-09-29T07:46:37;97058.44;;;12.68
11926;BMP180;6022;48.768;18.608;2022-09-29T07:49:04;97057.00;;;12.65
11926;BMP180;6022;48.768;18.608;2022-09-29T07:51:31;97055.16;;;12.58
11926;BMP180;6022;48.768;18.608;2022-09-29T07:54:04;97061.25;;;12.65
11926;BMP180;6022;48.768;18.608;2022-09-29T07:56:31;97060.13;;;12.77
11926;BMP180;6022;48.768;18.608;2022-09-29T07:58:59;97061.34;;;12.82
11926;BMP180;6022;48.768;18.608;2022-09-29T08:01:28;97066.13;;;12.85
11926;BMP180;6022;48.768;18.608;2022-09-29T08:03:57;97072.38;;;12.90
11926;BMP180;6022;48.768;18.608;2022-09-29T08:06:25;97064.97;;;12.97
11926;BMP180;6022;48.768;18.608;2022-09-29T08:08:53;97071.53;;;12.99
11926;BMP180;6022;48.768;18.608;2022-09-29T08:11:32;97067.69;;;13.13
11926;BMP180;6022;48.768;18.608;2022-09-29T08:14:00;97063.09;;;13.16
11926;BMP180;6022;48.768;18.608;2022-09-29T08:16:31;97061.06;;;13.20
11926;BMP180;6022;48.768;18.608;2022-09-29T08:19:00;97059.75;;;13.33
11926;BMP180;6022;48.768;18.608;2022-09-29T08:21:29;97055.81;;;13.56
11926;BMP180;6022;48.768;18.608;2022-09-29T08:23:57;97044.94;;;13.71
11926;BMP180;6022;48.768;18.608;2022-09-29T08:26:27;97051.56;;;14.06
11926;BMP180;6022;48.768;18.608;2022-09-29T08:29:08;97061.19;;;14.53
11926;BMP180;6022;48.768;18.608;2022-09-29T08:31:41;97061.97;;;14.95
11926;BMP180;6022;48.768;18.608;2022-09-29T08:34:09;97063.97;;;15.24
11926;BMP180;6022;48.768;18.608;2022-09-29T08:36:37;97059.53;;;15.50
11926;BMP180;6022;48.768;18.608;2022-09-29T08:39:04;97055.66;;;15.86
11926;BMP180;6022;48.768;18.608;2022-09-29T08:41:58;97055.97;;;15.90
11926;BMP180;6022;48.768;18.608;2022-09-29T08:44:41;97050.56;;;15.70
11926;BMP180;6022;48.768;18.608;2022-09-29T08:47:31;97049.75;;;15.77
11926;BMP180;6022;48.768;18.608;2022-09-29T08:50:33;97047.16;;;16.01
11926;BMP180;6022;48.768;18.608;2022-09-29T08:53:11;97054.34;;;16.05
11926;BMP180;6022;48.768;18.608;2022-09-29T08:56:13;97060.25;;;16.14
11926;BMP180;6022;48.768;18.608;2022-09-29T08:58:41;97062.03;;;16.21
11926;BMP180;6022;48.768;18.608;2022-09-29T09:04:32;97063.91;;;16.35
11926;BMP180;6022;48.768;18.608;2022-09-29T09:10:48;97073.56;;;15.93
11926;BMP180;6022;48.768;18.608;2022-09-29T09:13:31;97072.31;;;15.50
11926;BMP180;6022;48.768;18.608;2022-09-29T09:22:18;97079.69;;;15.04
11926;BMP180;6022;48.768;18.608;2022-09-29T09:28:07;97079.44;;;15.15
11926;BMP180;6022;48.768;18.608;2022-09-29T09:33:41;97077.88;;;15.46
11926;BMP180;6022;48.768;18.608;2022-09-29T09:36:15;97075.66;;;15.50
11926;BMP180;6022;48.768;18.608;2022-09-29T09:39:14;97076.75;;;15.88
11926;BMP180;6022;48.768;18.608;2022-09-29T09:41:47;97086.63;;;16.22
11926;BMP180;6022;48.768;18.608;2022-09-29T09:44:28;97075.03;;;16.50
11926;BMP180;6022;48.768;18.608;2022-09-29T09:47:28;97076.22;;;17.07
11926;BMP180;6022;48.768;18.608;2022-09-29T09:50:11;97080.53;;;17.59
11926;BMP180;6022;48.768;18.608;2022-09-29T09:53:11;97078.06;;;18.24
11926;BMP180;6022;48.768;18.608;2022-09-29T09:55:42;97070.38;;;18.39
11926;BMP180;6022;48.768;18.608;2022-09-29T10:00:54;97055.47;;;18.77
11926;BMP180;6022;48.768;18.608;2022-09-29T10:03:23;97063.66;;;19.01
11926;BMP180;6022;48.768;18.608;2022-09-29T10:05:51;97070.09;;;19.26
11926;BMP180;6022;48.768;18.608;2022-09-29T10:08:26;97071.00;;;19.81
11926;BMP180;6022;48.768;18.608;2022-09-29T10:10:57;97070.28;;;20.47
11926;BMP180;6022;48.768;18.608;2022-09-29T10:13:30;97060.38;;;20.51
11926;BMP180;6022;48.768;18.608;2022-09-29T10:16:19;97055.41;;;22.06
11926;BMP180;6022;48.768;18.608;2022-09-29T10:18:50;97064.00;;;22.07
11926;BMP180;6022;48.768;18.608;2022-09-29T10:23:55;97081.06;;;20.97
11926;BMP180;6022;48.768;18.608;2022-09-29T10:29:22;97078.00;;;20.47
11926;BMP180;6022;48.768;18.608;2022-09-29T10:34:40;97069.75;;;19.98
11926;BMP180;6022;48.768;18.608;2022-09-29T10:37:20;97074.44;;;19.88
11926;BMP180;6022;48.768;18.608;2022-09-29T10:40:21;97077.84;;;19.32
11926;BMP180;6022;48.768;18.608;2022-09-29T10:42:50;97086.25;;;19.41
11926;BMP180;6022;48.768;18.608;2022-09-29T10:45:26;97085.44;;;19.40
11926;BMP180;6022;48.768;18.608;2022-09-29T10:50:59;97080.91;;;20.38
11926;BMP180;6022;48.768;18.608;2022-09-29T10:53:40;97077.34;;;20.66
11926;BMP180;6022;48.768;18.608;2022-09-29T10:56:18;97078.16;;;21.13
11926;BMP180;6022;48.768;18.608;2022-09-29T10:59:15;97077.16;;;21.14
11926;BMP180;6022;48.768;18.608;2022-09-29T11:01:48;97081.34;;;20.69
11926;BMP180;6022;48.768;18.608;2022-09-29T11:04:28;97082.13;;;20.69
11926;BMP180;6022;48.768;18.608;2022-09-29T11:06:56;97082.41;;;20.87
11926;BMP180;6022;48.768;18.608;2022-09-29T11:09:43;97076.19;;;20.75
11926;BMP180;6022;48.768;18.608;2022-09-29T11:12:46;97080.72;;;21.13
11926;BMP180;6022;48.768;18.608;2022-09-29T11:15:28;97072.53;;;21.82
11926;BMP180;6022;48.768;18.608;2022-09-29T11:17:56;97075.50;;;22.17
11926;BMP180;6022;48.768;18.608;2022-09-29T11:20:31;97079.50;;;22.26
11926;BMP180;6022;48.768;18.608;2022-09-29T11:28:51;97067.94;;;21.97
11926;BMP180;6022;48.768;18.608;2022-09-29T11:32:06;97071.00;;;21.22
11926;BMP180;6022;48.768;18.608;2022-09-29T11:35:06;97071.84;;;20.76
11926;BMP180;6022;48.768;18.608;2022-09-29T11:38:15;97059.06;;;20.61
11926;BMP180;6022;48.768;18.608;2022-09-29T11:43:46;97071.75;;;20.02
11926;BMP180;6022;48.768;18.608;2022-09-29T12:00:11;97064.41;;;20.26
11926;BMP180;6022;48.768;18.608;2022-09-29T12:09:14;97069.94;;;19.96
11926;BMP180;6022;48.768;18.608;2022-09-29T12:15:02;97071.47;;;19.70
11926;BMP180;6022;48.768;18.608;2022-09-29T12:17:37;97078.84;;;19.52
11926;BMP180;6022;48.768;18.608;2022-09-29T12:20:28;97077.03;;;19.11
11926;BMP180;6022;48.768;18.608;2022-09-29T12:23:01;97076.28;;;18.96
11926;BMP180;6022;48.768;18.608;2022-09-29T12:25:36;97080.16;;;18.92
11926;BMP180;6022;48.768;18.608;2022-09-29T12:28:13;97084.16;;;18.81
11926;BMP180;6022;48.768;18.608;2022-09-29T12:30:53;97083.81;;;18.69
11926;BMP180;6022;48.768;18.608;2022-09-29T12:33:33;97083.72;;;18.49
11926;BMP180;6022;48.768;18.608;2022-09-29T12:36:09;97088.97;;;18.55
11926;BMP180;6022;48.768;18.608;2022-09-29T12:39:30;97105.50;;;18.53
11926;BMP180;6022;48.768;18.608;2022-09-29T12:45:39;97095.34;;;18.59
11926;BMP180;6022;48.768;18.608;2022-09-29T12:57:02;97098.19;;;19.48
11926;BMP180;6022;48.768;18.608;2022-09-29T12:59:57;97103.97;;;19.15
11926;BMP180;6022;48.768;18.608;2022-09-29T13:11:57;97100.91;;;19.05
11926;BMP180;6022;48.768;18.608;2022-09-29T13:25:32;97114.34;;;18.93
11926;BMP180;6022;48.768;18.608;2022-09-29T13:27:35;97118.72;;;18.78
11926;BMP180;6022;48.768;18.608;2022-09-29T13:30:36;97126.84;;;18.67
11926;BMP180;6022;48.768;18.608;2022-09-29T13:33:30;97133.03;;;18.58
11926;BMP180;6022;48.768;18.608;2022-09-29T13:35:59;97134.63;;;18.31
11926;BMP180;6022;48.768;18.608;2022-09-29T13:38:36;97129.97;;;18.34
11926;BMP180;6022;48.768;18.608;2022-09-29T13:41:34;97139.06;;;18.37
11926;BMP180;6022;48.768;18.608;2022-09-29T13:44:25;97132.56;;;18.26
11926;BMP180;6022;48.768;18.608;2022-09-29T13:46:55;97130.09;;;18.18
11926;BMP180;6022;48.768;18.608;2022-09-29T13:49:28;97133.44;;;17.82
11926;BMP180;6022;48.768;18.608;2022-09-29T13:54:40;97127.66;;;17.80
11926;BMP180;6022;48.768;18.608;2022-09-29T14:00:00;97126.22;;;18.00
11926;BMP180;6022;48.768;18.608;2022-09-29T14:02:45;97133.66;;;17.95
11926;BMP180;6022;48.768;18.608;2022-09-29T14:13:27;97128.84;;;17.70
11926;BMP180;6022;48.768;18.608;2022-09-29T14:27:45;97131.41;;;17.92
11926;BMP180;6022;48.768;18.608;2022-09-29T14:33:09;97135.47;;;18.09
11926;BMP180;6022;48.768;18.608;2022-09-29T14:35:44;97137.63;;;18.20
11926;BMP180;6022;48.768;18.608;2022-09-29T14:43:41;97160.41;;;17.78
11926;BMP180;6022;48.768;18.608;2022-09-29T14:58:18;97152.97;;;17.31
11926;BMP180;6022;48.768;18.608;2022-09-29T15:03:44;97151.22;;;17.62
11926;BMP180;6022;48.768;18.608;2022-09-29T15:06:23;97147.50;;;17.64
11926;BMP180;6022;48.768;18.608;2022-09-29T15:09:03;97156.97;;;17.64
11926;BMP180;6022;48.768;18.608;2022-09-29T15:11:56;97165.81;;;17.61
11926;BMP180;6022;48.768;18.608;2022-09-29T15:14:32;97166.13;;;17.58
11926;BMP180;6022;48.768;18.608;2022-09-29T15:25:44;97184.25;;;17.27
11926;BMP180;6022;48.768;18.608;2022-09-29T15:28:37;97180.13;;;17.26
11926;BMP180;6022;48.768;18.608;2022-09-29T15:31:10;97179.16;;;17.19
11926;BMP180;6022;48.768;18.608;2022-09-29T15:33:41;97186.03;;;17.10
11926;BMP180;6022;48.768;18.608;2022-09-29T15:36:23;97167.41;;;16.94
11926;BMP180;6022;48.768;18.608;2022-09-29T15:39:51;97178.16;;;16.82
11926;BMP180;6022;48.768;18.608;2022-09-29T15:42:02;97181.56;;;16.66
11926;BMP180;6022;48.768;18.608;2022-09-29T15:44:31;97190.06;;;16.59
11926;BMP180;6022;48.768;18.608;2022-09-29T15:47:00;97187.03;;;16.48
11926;BMP180;6022;48.768;18.608;2022-09-29T15:49:28;97199.84;;;16.40
11926;BMP180;6022;48.768;18.608;2022-09-29T15:54:44;97204.66;;;16.27
11926;BMP180;6022;48.768;18.608;2022-09-29T16:03:02;97208.31;;;16.01
11926;BMP180;6022;48.768;18.608;2022-09-29T16:05:35;97211.66;;;15.93
11926;BMP180;6022;48.768;18.608;2022-09-29T16:08:18;97213.88;;;15.81
11926;BMP180;6022;48.768;18.608;2022-09-29T16:10:49;97214.16;;;15.70
11926;BMP180;6022;48.768;18.608;2022-09-29T16:13:23;97231.41;;;15.60
11926;BMP180;6022;48.768;18.608;2022-09-29T16:16:04;97233.13;;;15.51
11926;BMP180;6022;48.768;18.608;2022-09-29T16:18:44;97240.63;;;15.45
11926;BMP180;6022;48.768;18.608;2022-09-29T16:21:17;97242.03;;;15.40
11926;BMP180;6022;48.768;18.608;2022-09-29T16:24:11;97239.97;;;15.35
11926;BMP180;6022;48.768;18.608;2022-09-29T16:31:47;97264.63;;;15.19
11926;BMP180;6022;48.768;18.608;2022-09-29T16:34:30;97263.78;;;15.11
11926;BMP180;6022;48.768;18.608;2022-09-29T16:37:02;97263.25;;;14.99
11926;BMP180;6022;48.768;18.608;2022-09-29T16:39:40;97265.44;;;14.94
11926;BMP180;6022;48.768;18.608;2022-09-29T16:42:23;97267.50;;;14.91
11926;BMP180;6022;48.768;18.608;2022-09-29T16:44:53;97268.47;;;14.90
11926;BMP180;6022;48.768;18.608;2022-09-29T16:47:28;97268.47;;;14.90
11926;BMP180;6022;48.768;18.608;2022-09-29T16:49:59;97275.44;;;14.88
11926;BMP180;6022;48.768;18.608;2022-09-29T16:52:51;97273.44;;;14.74
11926;BMP180;6022;48.768;18.608;2022-09-29T16:55:27;97267.97;;;14.69
11926;BMP180;6022;48.768;18.608;2022-09-29T16:58:24;97279.16;;;14.68
11926;BMP180;6022;48.768;18.608;2022-09-29T17:00:52;97276.25;;;14.63
11926;BMP180;6022;48.768;18.608;2022-09-29T17:03:20;97282.97;;;14.64
11926;BMP180;6022;48.768;18.608;2022-09-29T17:05:47;97290.06;;;14.53
11926;BMP180;6022;48.768;18.608;2022-09-29T17:08:21;97290.78;;;14.45
11926;BMP180;6022;48.768;18.608;2022-09-29T17:10:55;97288.19;;;14.37
11926;BMP180;6022;48.768;18.608;2022-09-29T17:13:22;97294.81;;;14.31
11926;BMP180;6022;48.768;18.608;2022-09-29T17:15:51;97296.19;;;14.25
11926;BMP180;6022;48.768;18.608;2022-09-29T17:18:20;97300.00;;;14.21
11926;BMP180;6022;48.768;18.608;2022-09-29T17:20:49;97304.56;;;14.18
11926;BMP180;6022;48.768;18.608;2022-09-29T17:23:17;97296.84;;;14.10
11926;BMP180;6022;48.768;18.608;2022-09-29T17:25:46;97290.44;;;14.06
11926;BMP180;6022;48.768;18.608;2022-09-29T17:28:18;97299.59;;;13.99
11926;BMP180;6022;48.768;18.608;2022-09-29T17:30:47;97286.63;;;13.93
11926;BMP180;6022;48.768;18.608;2022-09-29T17:33:17;97298.84;;;13.89
11926;BMP180;6022;48.768;18.608;2022-09-29T17:35:48;97294.53;;;13.90
11926;BMP180;6022;48.768;18.608;2022-09-29T17:38:22;97292.44;;;13.85
11926;BMP180;6022;48.768;18.608;2022-09-29T17:41:00;97278.13;;;13.75
11926;BMP180;6022;48.768;18.608;2022-09-29T17:43:32;97274.06;;;13.64
11926;BMP180;6022;48.768;18.608;2022-09-29T17:46:00;97261.00;;;13.50
11926;BMP180;6022;48.768;18.608;2022-09-29T17:48:29;97279.25;;;13.46
11926;BMP180;6022;48.768;18.608;2022-09-29T17:50:57;97282.00;;;13.35
11926;BMP180;6022;48.768;18.608;2022-09-29T17:53:26;97284.41;;;13.36
11926;BMP180;6022;48.768;18.608;2022-09-29T17:55:56;97282.56;;;13.29
11926;BMP180;6022;48.768;18.608;2022-09-29T17:58:24;97289.06;;;13.14
11926;BMP180;6022;48.768;18.608;2022-09-29T18:00:54;97280.59;;;13.14
11926;BMP180;6022;48.768;18.608;2022-09-29T18:03:24;97291.41;;;13.25
11926;BMP180;6022;48.768;18.608;2022-09-29T18:05:54;97291.81;;;13.21
11926;BMP180;6022;48.768;18.608;2022-09-29T18:08:26;97299.34;;;13.22
11926;BMP180;6022;48.768;18.608;2022-09-29T18:10:58;97300.66;;;13.26
11926;BMP180;6022;48.768;18.608;2022-09-29T18:13:29;97301.09;;;13.22
11926;BMP180;6022;48.768;18.608;2022-09-29T18:16:01;97298.00;;;13.18
11926;BMP180;6022;48.768;18.608;2022-09-29T18:18:29;97299.50;;;13.11